ADDS METAR Data INFO
IDs: Format: Raw Decoded Include TAF

Data at: 0152 UTC 17 Oct 2017

KGWB 170135Z AUTO 00000KT 10SM CLR 06/04 A3027 RMK AO2
KGWB 170120Z AUTO 00000KT 10SM CLR 06/03 A3027 RMK AO2
KGWB 170055Z AUTO 00000KT 10SM CLR 06/04 A3028 RMK AO2
KGWB 170035Z AUTO 00000KT 10SM CLR 07/04 A3028 RMK AO2
KGWB 170015Z AUTO 00000KT 10SM CLR 07/04 A3028 RMK AO2
KGWB 162355Z AUTO 00000KT 10SM CLR 07/04 A3027 RMK AO2
KGWB 162335Z AUTO 00000KT 10SM CLR 09/04 A3027 RMK AO2
KGWB 162315Z AUTO 00000KT 10SM CLR 10/04 A3027 RMK AO2
KGWB 162255Z AUTO 00000KT 10SM CLR 11/04 A3027 RMK AO2
KGWB 162235Z AUTO 00000KT 10SM CLR 12/03 A3027 RMK AO2
KGWB 162215Z AUTO 30004KT 10SM CLR 13/03 A3027 RMK AO2
KGWB 162155Z AUTO 28006KT 10SM SCT065 13/03 A3027 RMK AO2
KGWB 162135Z AUTO 26007KT 10SM CLR 13/02 A3027 RMK AO2
KGWB 162115Z AUTO 28008KT 10SM SCT050 SCT070 15/03 A3027 RMK AO2
KGWB 162055Z AUTO 30007KT 10SM SCT047 SCT060 BKN070 15/03 A3027 RMK AO2
KGWB 162035Z AUTO 27007KT 10SM SCT047 SCT060 SCT070 14/03 A3027 RMK AO2
KGWB 162015Z AUTO 26008KT 10SM SCT047 SCT055 15/03 A3027 RMK AO2
KGWB 161955Z AUTO 28010KT 10SM SCT041 SCT047 SCT060 15/03 A3027 RMK AO2
KGWB 161935Z AUTO 31004KT 10SM SCT046 SCT050 BKN065 13/03 A3028 RMK AO2
KGWB 161915Z AUTO 29004KT 10SM SCT043 BKN065 OVC080 13/03 A3028 RMK AO2
KGWB 161855Z AUTO 27006KT 10SM SCT040 BKN060 OVC080 13/04 A3029 RMK AO2
KGWB 161840Z AUTO 29008KT 10SM SCT040 BKN060 OVC070 13/04 A3029 RMK AO2
KGWB 161815Z AUTO 29007KT 10SM SCT040 OVC070 15/05 A3029 RMK AO2
KGWB 161755Z AUTO 30010KT 10SM SCT044 BKN080 13/03 A3030 RMK AO2
KGWB 161735Z AUTO 29007KT 10SM SCT046 13/03 A3030 RMK AO2
KGWB 161715Z AUTO 31007G14KT 10SM SCT040 BKN046 13/03 A3031 RMK AO2
KGWB 161655Z AUTO 28011KT 245V305 10SM SCT036 SCT046 14/03 A3031 RMK AO2
KGWB 161635Z AUTO 32004KT 10SM SCT034 SCT039 13/04 A3031 RMK AO2
KGWB 161615Z AUTO 29010KT 10SM SCT025 SCT033 SCT080 12/05 A3031 RMK AO2
KGWB 161555Z AUTO 29006KT 10SM SCT023 SCT028 BKN080 12/06 A3032 RMK AO2
KGWB 161535Z AUTO 28007KT 10SM SCT020 BKN025 BKN036 11/06 A3032 RMK AO2
KGWB 161515Z AUTO 33004KT 10SM SCT016 SCT023 BKN036 11/06 A3032 RMK AO2
KGWB 161455Z AUTO 26005KT 10SM SCT014 SCT021 11/07 A3031 RMK AO2
KGWB 161435Z AUTO 28005KT 10SM SCT011 10/07 A3031 RMK AO2
KGWB 161415Z AUTO 27004KT 10SM SCT009 SCT013 10/07 A3031 RMK AO2
KGWB 161355Z AUTO 27004KT 10SM SCT007 BKN013 10/07 A3031 RMK AO2
KGWB 161335Z AUTO 00000KT 10SM SCT007 09/07 A3030 RMK AO2
KGWB 161315Z AUTO 00000KT 10SM CLR 08/07 A3030 RMK AO2
KGWB 161255Z AUTO 00000KT 5SM BR SCT014 07/07 A3030 RMK AO2
KGWB 161235Z AUTO 00000KT 7SM BKN014 BKN020 07/07 A3029 RMK AO2
KGWB 161215Z AUTO 00000KT 7SM SCT007 SCT010 BKN021 07/06 A3029 RMK AO2
KGWB 161155Z AUTO 00000KT 10SM SCT009 BKN023 OVC027 07/06 A3028 RMK AO2
KGWB 161135Z AUTO 00000KT 1 1/4SM BR BKN009 BKN018 BKN036 07/06 A3028 RMK AO2 VIS 1/2V5
KGWB 161115Z AUTO 00000KT 3/4SM BR SCT036 BKN060 07/06 A3027 RMK AO2
KGWB 161055Z AUTO 00000KT 10SM BKN060 07/06 A3026 RMK AO2
KGWB 161035Z AUTO 00000KT 10SM BKN050 08/07 A3026 RMK AO2
KGWB 161015Z AUTO 00000KT 10SM SCT038 SCT043 OVC060 08/07 A3026 RMK AO2
KGWB 160955Z AUTO 00000KT 10SM SCT038 BKN049 OVC055 08/07 A3025 RMK AO2
KGWB 160935Z AUTO 00000KT 10SM SCT042 BKN049 OVC055 08/07 A3024 RMK AO2
KGWB 160915Z AUTO 00000KT 10SM RA SCT033 BKN042 OVC049 08/07 A3025 RMK AO2
KGWB 160855Z AUTO 30004KT 10SM DZ BKN032 OVC038 08/07 A3024 RMK AO2
KGWB 160835Z AUTO 29003KT 10SM OVC037 08/07 A3024 RMK AO2
KGWB 160815Z AUTO 29003KT 10SM BKN039 OVC060 08/06 A3023 RMK AO2
KGWB 160755Z AUTO 29003KT 10SM SCT034 BKN042 OVC060 07/06 A3023 RMK AO2
KGWB 160740Z AUTO 29003KT 10SM DZ SCT034 BKN044 OVC060 07/06 A3023 RMK AO2
KGWB 160715Z AUTO 27003KT 10SM BKN060 06/05 A3023 RMK AO2
KGWB 160655Z AUTO 00000KT 10SM SCT065 06/05 A3023 RMK AO2
KGWB 160635Z AUTO 00000KT 10SM SCT065 06/04 A3022 RMK AO2
KGWB 160615Z AUTO 00000KT 10SM CLR 06/05 A3022 RMK AO2
KGWB 160555Z AUTO 00000KT 10SM CLR 06/05 A3022 RMK AO2
KGWB 160535Z AUTO 00000KT 06/05 A3021 RMK AO2 PWINO
KGWB 160515Z AUTO 00000KT 10SM CLR 06/05 A3020 RMK AO2
KGWB 160455Z AUTO 00000KT 10SM CLR 07/05 A3020 RMK AO2
KGWB 160435Z AUTO 00000KT 10SM CLR 07/05 A3021 RMK AO2
KGWB 160415Z AUTO 30003KT 10SM CLR 08/06 A3020 RMK AO2
KGWB 160355Z AUTO 31003KT 10SM SCT050 08/06 A3020 RMK AO2
KGWB 160330Z AUTO 31003KT 10SM SCT050 08/06 A3020 RMK AO2
KGWB 160315Z AUTO 31004KT 10SM SCT060 08/06 A3020 RMK AO2
KGWB 160255Z AUTO 30004KT 10SM CLR 08/06 A3020 RMK AO2
KGWB 160235Z AUTO 31003KT 10SM CLR 08/06 A3019 RMK AO2
KGWB 160215Z AUTO 31004KT 10SM CLR 08/06 A3018 RMK AO2
KGWB 160155Z AUTO 31004KT 10SM CLR 08/06 A3017 RMK AO2
KGWB 160135Z AUTO 30004KT 10SM CLR 09/06 A3016 RMK AO2
KGWB 160115Z AUTO 31005KT 10SM CLR 09/07 A3015 RMK AO2
KGWB 160055Z AUTO 31006KT 10SM SCT060 09/07 A3014 RMK AO2
KGWB 160035Z AUTO 31007KT 10SM SCT060 10/07 A3013 RMK AO2
KGWB 160015Z AUTO 31007KT 10SM CLR 10/07 A3011 RMK AO2
KGWB 152355Z AUTO 31008G18KT 10SM SCT018 SCT029 SCT039 10/07 A3010 RMK AO2
KGWB 152335Z AUTO 31010G17KT 10SM SCT020 BKN026 OVC048 11/07 A3009 RMK AO2
KGWB 152315Z AUTO 31011G17KT 10SM SCT020 SCT027 OVC048 11/07 A3009 RMK AO2
KGWB 152255Z AUTO 30012G20KT 10SM SCT020 BKN025 OVC050 12/07 A3008 RMK AO2
KGWB 152235Z AUTO 30014G22KT 10SM SCT020 SCT025 OVC050 12/07 A3006 RMK AO2
KGWB 152215Z AUTO 30010G20KT 10SM SCT028 SCT034 OVC050 12/08 A3005 RMK AO2
KGWB 152155Z AUTO 29013G18KT 10SM SCT024 SCT030 BKN049 12/09 A3004 RMK AO2
KGWB 152135Z AUTO 28012G19KT 10SM SCT017 BKN023 OVC049 12/09 A3003 RMK AO2
KGWB 152115Z AUTO 28016G23KT 4SM HZ SCT017 OVC024 12/09 A3002 RMK AO2
KGWB 152055Z AUTO 28014G20KT 10SM OVC026 13/07 A3000 RMK AO2
KGWB 152035Z AUTO 29017G29KT 10SM OVC026 13/07 A3000 RMK AO2
KGWB 152015Z AUTO 28015G21KT 10SM SCT026 BKN031 BKN039 13/07 A2999 RMK AO2
KGWB 151955Z AUTO 27016G23KT 10SM SCT023 SCT029 BKN037 13/07 A2998 RMK AO2
KGWB 151935Z AUTO 28022G28KT 10SM BKN025 OVC032 12/07 A2998 RMK AO2
KGWB 151915Z AUTO 29021G29KT 10SM SCT018 BKN026 OVC031 12/08 A2996 RMK AO2
KGWB 151855Z AUTO 29019G24KT 10SM -RA SCT018 BKN023 OVC041 13/09 A2995 RMK AO2
KGWB 151835Z AUTO 27012G23KT 10SM SCT014 BKN021 OVC041 14/10 A2993 RMK AO2
KGWB 151815Z AUTO 26014G21KT 10SM SCT014 BKN019 OVC037 13/11 A2993 RMK AO2
KGWB 151755Z AUTO 28018G22KT 10SM SCT013 BKN019 OVC038 15/11 A2992 RMK AO2
KGWB 151735Z AUTO 27013G24KT 10SM SCT010 BKN017 OVC023 14/11 A2991 RMK AO2
KGWB 151715Z AUTO 27019G25KT 10SM DZ SCT010 BKN015 OVC027 15/12 A2991 RMK AO2
KGWB 151655Z AUTO 27012G20KT 7SM DZ SCT016 BKN029 OVC035 15/13 A2989 RMK AO2
KGWB 151635Z AUTO 26014G20KT 5SM DZ SCT014 BKN039 OVC049 16/13 A2988 RMK AO2
KGWB 151615Z AUTO 27012G21KT 10SM SCT010 BKN014 OVC039 16/13 A2986 RMK AO2
KGWB 151555Z AUTO 26009G16KT 5SM DZ OVC012 16/14 A2986 RMK AO2 P0003
KGWB 151535Z AUTO 26012G19KT 10SM -RA BKN014 BKN018 OVC031 17/15 A2984 RMK AO2 P0003
KGWB 151515Z AUTO 26011G23KT 10SM -RA BKN014 BKN020 OVC026 18/15 A2981 RMK AO2 P0001
KGWB 151455Z AUTO 23009G17KT 5SM -DZ SCT014 OVC021 19/17 A2979 RMK AO2
KGWB 151435Z AUTO 23012G21KT 10SM -DZ BKN023 BKN029 BKN120 20/16 A2980 RMK AO2
KGWB 151415Z AUTO 22011G21KT 185V245 10SM -RA SCT035 SCT045 SCT120 21/16 A2977 RMK AO2
KGWB 151355Z AUTO 22014G22KT 10SM -RA SCT025 BKN036 BKN050 21/17 A2979 RMK AO2